sensor_id;sensor_type;location;lat;lon;timestamp;temperature;humidity
24462;DHT22;12631;50.860;5.714;2023-07-29T00:00:14;19.60;99.90
24462;DHT22;12631;50.860;5.714;2023-07-29T00:02:44;19.60;99.90
24462;DHT22;12631;50.860;5.714;2023-07-29T00:05:11;19.60;99.90
24462;DHT22;12631;50.860;5.714;2023-07-29T00:07:39;19.60;99.90
24462;DHT22;12631;50.860;5.714;2023-07-29T00:10:07;19.60;99.90
24462;DHT22;12631;50.860;5.714;2023-07-29T00:12:35;19.60;99.90
24462;DHT22;12631;50.860;5.714;2023-07-29T00:15:02;19.60;99.90
24462;DHT22;12631;50.860;5.714;2023-07-29T00:17:29;19.70;99.90
24462;DHT22;12631;50.860;5.714;2023-07-29T00:19:58;19.70;99.90
24462;DHT22;12631;50.860;5.714;2023-07-29T00:22:25;19.70;99.90
24462;DHT22;12631;50.860;5.714;2023-07-29T00:24:53;19.60;99.90
24462;DHT22;12631;50.860;5.714;2023-07-29T00:27:21;19.70;99.90
24462;DHT22;12631;50.860;5.714;2023-07-29T00:29:48;19.70;99.90
24462;DHT22;12631;50.860;5.714;2023-07-29T00:32:15;19.70;99.90
24462;DHT22;12631;50.860;5.714;2023-07-29T00:34:43;19.60;99.90
24462;DHT22;12631;50.860;5.714;2023-07-29T00:37:12;19.70;99.90
24462;DHT22;12631;50.860;5.714;2023-07-29T00:39:39;19.70;99.90
24462;DHT22;12631;50.860;5.714;2023-07-29T00:42:07;19.70;99.90
24462;DHT22;12631;50.860;5.714;2023-07-29T00:44:34;19.70;99.90
24462;DHT22;12631;50.860;5.714;2023-07-29T00:47:02;19.70;99.90
24462;DHT22;12631;50.860;5.714;2023-07-29T00:49:32;19.70;99.90
24462;DHT22;12631;50.860;5.714;2023-07-29T00:51:59;19.70;99.90
24462;DHT22;12631;50.860;5.714;2023-07-29T00:54:28;19.70;99.90
24462;DHT22;12631;50.860;5.714;2023-07-29T00:56:56;19.70;99.90
24462;DHT22;12631;50.860;5.714;2023-07-29T00:59:23;19.70;99.90
24462;DHT22;12631;50.860;5.714;2023-07-29T01:01:51;19.70;99.90
24462;DHT22;12631;50.860;5.714;2023-07-29T01:04:18;19.70;99.90
24462;DHT22;12631;50.860;5.714;2023-07-29T01:07:07;19.80;99.90
24462;DHT22;12631;50.860;5.714;2023-07-29T01:09:42;19.70;99.90
24462;DHT22;12631;50.860;5.714;2023-07-29T01:12:16;19.80;99.90
24462;DHT22;12631;50.860;5.714;2023-07-29T01:14:51;19.80;99.90
24462;DHT22;12631;50.860;5.714;2023-07-29T01:17:23;19.80;99.90
24462;DHT22;12631;50.860;5.714;2023-07-29T01:20:01;19.80;99.90
24462;DHT22;12631;50.860;5.714;2023-07-29T01:22:32;19.80;99.90
24462;DHT22;12631;50.860;5.714;2023-07-29T01:25:00;19.80;99.90
24462;DHT22;12631;50.860;5.714;2023-07-29T01:27:28;19.80;99.90
24462;DHT22;12631;50.860;5.714;2023-07-29T01:29:56;19.80;99.90
24462;DHT22;12631;50.860;5.714;2023-07-29T01:32:32;19.80;99.90
24462;DHT22;12631;50.860;5.714;2023-07-29T01:35:15;19.90;99.90
24462;DHT22;12631;50.860;5.714;2023-07-29T01:37:49;19.90;99.90
24462;DHT22;12631;50.860;5.714;2023-07-29T01:40:21;19.90;99.90
24462;DHT22;12631;50.860;5.714;2023-07-29T01:42:49;19.90;99.90
24462;DHT22;12631;50.860;5.714;2023-07-29T01:45:17;19.90;99.90
24462;DHT22;12631;50.860;5.714;2023-07-29T01:47:44;19.90;99.90
24462;DHT22;12631;50.860;5.714;2023-07-29T01:50:11;19.90;99.90
24462;DHT22;12631;50.860;5.714;2023-07-29T01:52:38;19.90;99.90
24462;DHT22;12631;50.860;5.714;2023-07-29T01:55:07;19.90;99.90
24462;DHT22;12631;50.860;5.714;2023-07-29T01:57:35;20.00;99.90
24462;DHT22;12631;50.860;5.714;2023-07-29T02:00:03;20.00;99.90
24462;DHT22;12631;50.860;5.714;2023-07-29T02:02:30;19.90;99.90
24462;DHT22;12631;50.860;5.714;2023-07-29T02:04:58;19.90;99.90
24462;DHT22;12631;50.860;5.714;2023-07-29T02:07:25;19.90;99.90
24462;DHT22;12631;50.860;5.714;2023-07-29T02:09:53;19.90;99.90
24462;DHT22;12631;50.860;5.714;2023-07-29T02:12:20;19.90;99.90
24462;DHT22;12631;50.860;5.714;2023-07-29T02:14:48;19.80;99.90
24462;DHT22;12631;50.860;5.714;2023-07-29T02:17:16;19.80;99.90
24462;DHT22;12631;50.860;5.714;2023-07-29T02:19:44;19.80;99.90
24462;DHT22;12631;50.860;5.714;2023-07-29T02:22:13;19.80;99.90
24462;DHT22;12631;50.860;5.714;2023-07-29T02:24:41;19.80;99.90
24462;DHT22;12631;50.860;5.714;2023-07-29T02:27:08;19.70;99.90
24462;DHT22;12631;50.860;5.714;2023-07-29T02:29:35;19.80;99.90
24462;DHT22;12631;50.860;5.714;2023-07-29T02:32:04;19.70;99.90
24462;DHT22;12631;50.860;5.714;2023-07-29T02:34:32;19.70;99.90
24462;DHT22;12631;50.860;5.714;2023-07-29T02:36:59;19.60;99.90
24462;DHT22;12631;50.860;5.714;2023-07-29T02:39:26;19.70;99.90
24462;DHT22;12631;50.860;5.714;2023-07-29T02:41:53;19.80;99.90
24462;DHT22;12631;50.860;5.714;2023-07-29T02:44:21;19.80;99.90
24462;DHT22;12631;50.860;5.714;2023-07-29T02:46:48;19.80;99.90
24462;DHT22;12631;50.860;5.714;2023-07-29T02:49:19;19.70;99.90
24462;DHT22;12631;50.860;5.714;2023-07-29T02:51:46;19.60;99.90
24462;DHT22;12631;50.860;5.714;2023-07-29T02:54:14;19.60;99.90
24462;DHT22;12631;50.860;5.714;2023-07-29T02:56:41;19.40;99.90
24462;DHT22;12631;50.860;5.714;2023-07-29T02:59:08;19.30;99.90
24462;DHT22;12631;50.860;5.714;2023-07-29T03:01:36;19.20;99.90
24462;DHT22;12631;50.860;5.714;2023-07-29T03:04:03;19.20;99.90
24462;DHT22;12631;50.860;5.714;2023-07-29T03:06:32;19.10;99.90
24462;DHT22;12631;50.860;5.714;2023-07-29T03:08:59;19.10;99.90
24462;DHT22;12631;50.860;5.714;2023-07-29T03:11:26;19.00;99.90
24462;DHT22;12631;50.860;5.714;2023-07-29T03:13:54;18.80;99.90
24462;DHT22;12631;50.860;5.714;2023-07-29T03:16:22;18.80;99.90
24462;DHT22;12631;50.860;5.714;2023-07-29T03:18:50;18.70;99.90
24462;DHT22;12631;50.860;5.714;2023-07-29T03:21:17;18.70;99.90
24462;DHT22;12631;50.860;5.714;2023-07-29T03:23:46;18.60;99.90
24462;DHT22;12631;50.860;5.714;2023-07-29T03:26:13;18.60;99.90
24462;DHT22;12631;50.860;5.714;2023-07-29T03:28:42;18.60;99.90
24462;DHT22;12631;50.860;5.714;2023-07-29T03:31:09;18.50;99.90
24462;DHT22;12631;50.860;5.714;2023-07-29T03:33:37;18.40;99.90
24462;DHT22;12631;50.860;5.714;2023-07-29T03:36:04;18.40;99.90
24462;DHT22;12631;50.860;5.714;2023-07-29T03:38:31;18.30;99.90
24462;DHT22;12631;50.860;5.714;2023-07-29T03:41:02;18.30;99.90
24462;DHT22;12631;50.860;5.714;2023-07-29T03:43:29;18.30;99.90
24462;DHT22;12631;50.860;5.714;2023-07-29T03:45:57;18.20;99.90
24462;DHT22;12631;50.860;5.714;2023-07-29T03:48:24;18.20;99.90
24462;DHT22;12631;50.860;5.714;2023-07-29T03:50:51;18.10;99.90
24462;DHT22;12631;50.860;5.714;2023-07-29T03:53:18;18.10;99.90
24462;DHT22;12631;50.860;5.714;2023-07-29T03:55:45;18.10;99.90
24462;DHT22;12631;50.860;5.714;2023-07-29T03:58:14;18.00;99.90
24462;DHT22;12631;50.860;5.714;2023-07-29T04:00:41;18.00;99.90
24462;DHT22;12631;50.860;5.714;2023-07-29T04:03:09;17.90;99.90
24462;DHT22;12631;50.860;5.714;2023-07-29T04:05:36;17.90;99.90
24462;DHT22;12631;50.860;5.714;2023-07-29T04:08:04;17.90;99.90
24462;DHT22;12631;50.860;5.714;2023-07-29T04:10:31;17.90;99.90
24462;DHT22;12631;50.860;5.714;2023-07-29T04:12:58;17.80;99.90
24462;DHT22;12631;50.860;5.714;2023-07-29T04:15:26;17.80;99.90
24462;DHT22;12631;50.860;5.714;2023-07-29T04:17:54;17.80;99.90
24462;DHT22;12631;50.860;5.714;2023-07-29T04:20:21;17.80;99.90
24462;DHT22;12631;50.860;5.714;2023-07-29T04:22:48;17.80;99.90
24462;DHT22;12631;50.860;5.714;2023-07-29T04:25:16;17.70;99.90
24462;DHT22;12631;50.860;5.714;2023-07-29T04:27:43;17.80;99.90
24462;DHT22;12631;50.860;5.714;2023-07-29T04:30:11;17.80;99.90
24462;DHT22;12631;50.860;5.714;2023-07-29T04:32:39;17.80;99.90
24462;DHT22;12631;50.860;5.714;2023-07-29T04:35:08;17.80;99.90
24462;DHT22;12631;50.860;5.714;2023-07-29T04:37:35;17.80;99.90
24462;DHT22;12631;50.860;5.714;2023-07-29T04:40:02;17.90;99.90
24462;DHT22;12631;50.860;5.714;2023-07-29T04:42:30;17.90;99.90
24462;DHT22;12631;50.860;5.714;2023-07-29T04:44:57;18.00;99.90
24462;DHT22;12631;50.860;5.714;2023-07-29T04:47:24;18.00;99.90
24462;DHT22;12631;50.860;5.714;2023-07-29T04:49:53;18.00;99.90
24462;DHT22;12631;50.860;5.714;2023-07-29T04:52:20;18.00;99.90
24462;DHT22;12631;50.860;5.714;2023-07-29T04:54:47;18.10;99.90
24462;DHT22;12631;50.860;5.714;2023-07-29T04:57:15;18.10;99.90
24462;DHT22;12631;50.860;5.714;2023-07-29T04:59:42;18.00;99.90
24462;DHT22;12631;50.860;5.714;2023-07-29T05:02:09;18.00;99.90
24462;DHT22;12631;50.860;5.714;2023-07-29T05:04:37;18.10;99.90
24462;DHT22;12631;50.860;5.714;2023-07-29T05:07:06;18.20;99.90
24462;DHT22;12631;50.860;5.714;2023-07-29T05:09:33;18.20;99.90
24462;DHT22;12631;50.860;5.714;2023-07-29T05:12:00;18.10;99.90
24462;DHT22;12631;50.860;5.714;2023-07-29T05:14:27;18.10;99.90
24462;DHT22;12631;50.860;5.714;2023-07-29T05:16:55;18.10;99.90
24462;DHT22;12631;50.860;5.714;2023-07-29T05:19:22;18.10;99.90
24462;DHT22;12631;50.860;5.714;2023-07-29T05:21:49;18.00;99.90
24462;DHT22;12631;50.860;5.714;2023-07-29T05:24:18;18.10;99.90
24462;DHT22;12631;50.860;5.714;2023-07-29T05:26:45;18.10;99.90
24462;DHT22;12631;50.860;5.714;2023-07-29T05:29:12;18.00;99.90
24462;DHT22;12631;50.860;5.714;2023-07-29T05:31:39;18.10;99.90
24462;DHT22;12631;50.860;5.714;2023-07-29T05:34:07;18.10;99.90
24462;DHT22;12631;50.860;5.714;2023-07-29T05:36:34;18.20;99.90
24462;DHT22;12631;50.860;5.714;2023-07-29T05:39:01;18.20;99.90
24462;DHT22;12631;50.860;5.714;2023-07-29T05:41:31;18.20;99.90
24462;DHT22;12631;50.860;5.714;2023-07-29T05:43:58;18.30;99.90
24462;DHT22;12631;50.860;5.714;2023-07-29T05:46:25;18.40;99.90
24462;DHT22;12631;50.860;5.714;2023-07-29T05:48:52;18.40;99.90
24462;DHT22;12631;50.860;5.714;2023-07-29T05:51:20;18.50;99.90
24462;DHT22;12631;50.860;5.714;2023-07-29T05:53:47;18.50;99.90
24462;DHT22;12631;50.860;5.714;2023-07-29T05:56:14;18.40;99.90
24462;DHT22;12631;50.860;5.714;2023-07-29T05:58:42;18.40;99.90
24462;DHT22;12631;50.860;5.714;2023-07-29T06:01:10;18.40;99.90
24462;DHT22;12631;50.860;5.714;2023-07-29T06:03:37;18.50;99.90
24462;DHT22;12631;50.860;5.714;2023-07-29T06:06:05;18.60;99.90
24462;DHT22;12631;50.860;5.714;2023-07-29T06:08:32;18.60;99.90
24462;DHT22;12631;50.860;5.714;2023-07-29T06:11:00;18.80;99.90
24462;DHT22;12631;50.860;5.714;2023-07-29T06:13:27;18.80;99.90
24462;DHT22;12631;50.860;5.714;2023-07-29T06:15:56;19.00;99.90
24462;DHT22;12631;50.860;5.714;2023-07-29T06:18:24;19.10;99.90
24462;DHT22;12631;50.860;5.714;2023-07-29T06:20:51;19.40;99.90
24462;DHT22;12631;50.860;5.714;2023-07-29T06:23:18;19.30;99.90
24462;DHT22;12631;50.860;5.714;2023-07-29T06:25:46;19.30;99.90
24462;DHT22;12631;50.860;5.714;2023-07-29T06:28:13;19.40;99.90
24462;DHT22;12631;50.860;5.714;2023-07-29T06:30:40;19.40;99.90
24462;DHT22;12631;50.860;5.714;2023-07-29T06:33:09;19.40;99.90
24462;DHT22;12631;50.860;5.714;2023-07-29T06:35:36;19.50;99.90
24462;DHT22;12631;50.860;5.714;2023-07-29T06:38:03;19.30;99.90
24462;DHT22;12631;50.860;5.714;2023-07-29T06:40:30;19.00;99.90
24462;DHT22;12631;50.860;5.714;2023-07-29T06:42:58;19.00;99.90
24462;DHT22;12631;50.860;5.714;2023-07-29T06:45:25;19.40;99.90
24462;DHT22;12631;50.860;5.714;2023-07-29T06:47:52;20.60;99.90
24462;DHT22;12631;50.860;5.714;2023-07-29T06:50:21;21.80;99.90
24462;DHT22;12631;50.860;5.714;2023-07-29T06:52:48;22.40;99.90
24462;DHT22;12631;50.860;5.714;2023-07-29T06:55:15;22.50;99.90
24462;DHT22;12631;50.860;5.714;2023-07-29T06:57:42;22.60;99.90
24462;DHT22;12631;50.860;5.714;2023-07-29T07:00:10;22.60;99.90
24462;DHT22;12631;50.860;5.714;2023-07-29T07:02:37;22.20;99.90
24462;DHT22;12631;50.860;5.714;2023-07-29T07:05:05;21.90;99.90
24462;DHT22;12631;50.860;5.714;2023-07-29T07:07:34;21.70;99.90
24462;DHT22;12631;50.860;5.714;2023-07-29T07:10:01;21.70;99.90
24462;DHT22;12631;50.860;5.714;2023-07-29T07:12:28;21.40;99.90
24462;DHT22;12631;50.860;5.714;2023-07-29T07:14:55;21.30;99.90
24462;DHT22;12631;50.860;5.714;2023-07-29T07:17:23;21.20;99.90
24462;DHT22;12631;50.860;5.714;2023-07-29T07:19:50;21.10;99.90
24462;DHT22;12631;50.860;5.714;2023-07-29T07:22:17;20.80;99.90
24462;DHT22;12631;50.860;5.714;2023-07-29T07:24:46;21.10;99.90
24462;DHT22;12631;50.860;5.714;2023-07-29T07:27:13;20.80;99.90
24462;DHT22;12631;50.860;5.714;2023-07-29T07:29:40;20.80;99.90
24462;DHT22;12631;50.860;5.714;2023-07-29T07:32:08;21.00;99.90
24462;DHT22;12631;50.860;5.714;2023-07-29T07:34:35;21.10;99.90
24462;DHT22;12631;50.860;5.714;2023-07-29T07:37:02;21.20;99.90
24462;DHT22;12631;50.860;5.714;2023-07-29T07:39:31;21.10;99.90
24462;DHT22;12631;50.860;5.714;2023-07-29T07:42:00;21.50;99.90
24462;DHT22;12631;50.860;5.714;2023-07-29T07:44:27;21.20;99.90
24462;DHT22;12631;50.860;5.714;2023-07-29T07:46:54;21.30;99.90
24462;DHT22;12631;50.860;5.714;2023-07-29T07:49:22;21.10;99.90
24462;DHT22;12631;50.860;5.714;2023-07-29T07:51:49;21.10;99.90
24462;DHT22;12631;50.860;5.714;2023-07-29T07:54:17;21.00;99.90
24462;DHT22;12631;50.860;5.714;2023-07-29T07:56:44;21.00;99.90
24462;DHT22;12631;50.860;5.714;2023-07-29T07:59:13;21.20;99.90
24462;DHT22;12631;50.860;5.714;2023-07-29T08:01:40;21.30;99.90
24462;DHT22;12631;50.860;5.714;2023-07-29T08:04:07;21.40;99.90
24462;DHT22;12631;50.860;5.714;2023-07-29T08:06:34;21.40;99.90
24462;DHT22;12631;50.860;5.714;2023-07-29T08:09:02;21.20;65.10
24462;DHT22;12631;50.860;5.714;2023-07-29T08:11:29;21.00;99.90
24462;DHT22;12631;50.860;5.714;2023-07-29T08:13:59;21.00;94.90
24462;DHT22;12631;50.860;5.714;2023-07-29T08:16:27;20.90;99.90
24462;DHT22;12631;50.860;5.714;2023-07-29T08:18:54;20.70;99.90
24462;DHT22;12631;50.860;5.714;2023-07-29T08:21:22;20.40;99.90
24462;DHT22;12631;50.860;5.714;2023-07-29T08:23:49;20.30;99.90
24462;DHT22;12631;50.860;5.714;2023-07-29T08:26:16;20.10;99.90
24462;DHT22;12631;50.860;5.714;2023-07-29T08:28:43;19.80;99.90
24462;DHT22;12631;50.860;5.714;2023-07-29T08:31:11;19.90;99.90
24462;DHT22;12631;50.860;5.714;2023-07-29T08:33:39;20.20;99.90
24462;DHT22;12631;50.860;5.714;2023-07-29T08:36:07;20.30;99.90
24462;DHT22;12631;50.860;5.714;2023-07-29T08:38:34;20.40;99.90
24462;DHT22;12631;50.860;5.714;2023-07-29T08:41:06;20.70;99.90
24462;DHT22;12631;50.860;5.714;2023-07-29T08:43:38;21.30;99.90
24462;DHT22;12631;50.860;5.714;2023-07-29T08:46:06;21.60;99.90
24462;DHT22;12631;50.860;5.714;2023-07-29T08:48:39;21.90;99.90
24462;DHT22;12631;50.860;5.714;2023-07-29T08:51:08;21.70;65.80
24462;DHT22;12631;50.860;5.714;2023-07-29T08:53:36;21.40;14.40
24462;DHT22;12631;50.860;5.714;2023-07-29T08:56:04;21.00;73.30
24462;DHT22;12631;50.860;5.714;2023-07-29T08:58:32;21.00;76.80
24462;DHT22;12631;50.860;5.714;2023-07-29T09:01:00;21.00;39.30
24462;DHT22;12631;50.860;5.714;2023-07-29T09:03:28;21.00;50.60
24462;DHT22;12631;50.860;5.714;2023-07-29T09:05:57;21.20;28.80
24462;DHT22;12631;50.860;5.714;2023-07-29T09:08:25;21.90;1.00
24462;DHT22;12631;50.860;5.714;2023-07-29T09:10:53;22.00;1.00
24462;DHT22;12631;50.860;5.714;2023-07-29T09:13:21;21.80;99.90
24462;DHT22;12631;50.860;5.714;2023-07-29T09:15:48;21.50;1.00
24462;DHT22;12631;50.860;5.714;2023-07-29T09:18:17;21.50;1.00
24462;DHT22;12631;50.860;5.714;2023-07-29T09:20:46;21.40;1.00
24462;DHT22;12631;50.860;5.714;2023-07-29T09:23:16;21.50;1.00
24462;DHT22;12631;50.860;5.714;2023-07-29T09:25:46;22.30;1.00
24462;DHT22;12631;50.860;5.714;2023-07-29T09:28:15;23.20;1.00
24462;DHT22;12631;50.860;5.714;2023-07-29T09:30:44;22.80;99.90
24462;DHT22;12631;50.860;5.714;2023-07-29T09:33:12;21.90;15.40
24462;DHT22;12631;50.860;5.714;2023-07-29T09:35:39;21.80;1.00
24462;DHT22;12631;50.860;5.714;2023-07-29T09:38:07;22.00;1.00
24462;DHT22;12631;50.860;5.714;2023-07-29T09:40:37;22.40;1.00
24462;DHT22;12631;50.860;5.714;2023-07-29T09:43:05;22.80;1.00
24462;DHT22;12631;50.860;5.714;2023-07-29T09:45:34;23.30;1.00
24462;DHT22;12631;50.860;5.714;2023-07-29T09:48:02;23.70;99.90
24462;DHT22;12631;50.860;5.714;2023-07-29T09:50:31;24.50;1.00
24462;DHT22;12631;50.860;5.714;2023-07-29T09:52:58;24.50;1.00
24462;DHT22;12631;50.860;5.714;2023-07-29T09:55:26;25.10;1.00
24462;DHT22;12631;50.860;5.714;2023-07-29T09:57:56;26.30;1.00
24462;DHT22;12631;50.860;5.714;2023-07-29T10:00:27;26.40;99.90
24462;DHT22;12631;50.860;5.714;2023-07-29T10:02:56;24.60;99.90
24462;DHT22;12631;50.860;5.714;2023-07-29T10:05:26;23.40;99.90
24462;DHT22;12631;50.860;5.714;2023-07-29T10:07:55;22.80;1.00
24462;DHT22;12631;50.860;5.714;2023-07-29T10:10:22;22.50;1.00
24462;DHT22;12631;50.860;5.714;2023-07-29T10:12:50;21.90;1.00
24462;DHT22;12631;50.860;5.714;2023-07-29T10:15:21;21.60;1.00
24462;DHT22;12631;50.860;5.714;2023-07-29T10:17:48;21.50;79.40
24462;DHT22;12631;50.860;5.714;2023-07-29T10:20:24;21.60;1.00
24462;DHT22;12631;50.860;5.714;2023-07-29T10:22:52;21.80;1.00
24462;DHT22;12631;50.860;5.714;2023-07-29T10:25:22;21.90;1.00
24462;DHT22;12631;50.860;5.714;2023-07-29T10:27:56;22.10;99.90
24462;DHT22;12631;50.860;5.714;2023-07-29T10:30:25;22.70;99.90
24462;DHT22;12631;50.860;5.714;2023-07-29T10:32:58;23.40;1.00
24462;DHT22;12631;50.860;5.714;2023-07-29T10:35:26;22.80;99.90
24462;DHT22;12631;50.860;5.714;2023-07-29T10:37:53;22.30;1.00
24462;DHT22;12631;50.860;5.714;2023-07-29T10:40:20;22.50;1.00
24462;DHT22;12631;50.860;5.714;2023-07-29T10:43:01;22.60;1.00
24462;DHT22;12631;50.860;5.714;2023-07-29T10:45:38;23.20;1.00
24462;DHT22;12631;50.860;5.714;2023-07-29T10:48:06;23.20;99.90
24462;DHT22;12631;50.860;5.714;2023-07-29T10:50:34;23.70;99.90
24462;DHT22;12631;50.860;5.714;2023-07-29T10:53:02;23.80;99.90
24462;DHT22;12631;50.860;5.714;2023-07-29T10:55:32;24.80;1.00
24462;DHT22;12631;50.860;5.714;2023-07-29T10:58:12;24.70;1.00
24462;DHT22;12631;50.860;5.714;2023-07-29T11:00:43;25.20;1.00
24462;DHT22;12631;50.860;5.714;2023-07-29T11:03:12;25.30;1.00
24462;DHT22;12631;50.860;5.714;2023-07-29T11:05:45;25.70;1.00
24462;DHT22;12631;50.860;5.714;2023-07-29T11:08:17;26.20;1.00
24462;DHT22;12631;50.860;5.714;2023-07-29T11:11:04;26.00;99.90
24462;DHT22;12631;50.860;5.714;2023-07-29T11:13:33;25.40;99.90
24462;DHT22;12631;50.860;5.714;2023-07-29T11:16:03;25.10;99.90
24462;DHT22;12631;50.860;5.714;2023-07-29T11:18:31;25.40;99.90
24462;DHT22;12631;50.860;5.714;2023-07-29T11:21:00;25.60;99.90
24462;DHT22;12631;50.860;5.714;2023-07-29T11:23:30;25.60;99.90
24462;DHT22;12631;50.860;5.714;2023-07-29T11:25:57;25.70;99.90
24462;DHT22;12631;50.860;5.714;2023-07-29T11:28:25;24.70;99.90
24462;DHT22;12631;50.860;5.714;2023-07-29T11:30:54;24.00;99.90
24462;DHT22;12631;50.860;5.714;2023-07-29T11:33:25;23.80;99.90
24462;DHT22;12631;50.860;5.714;2023-07-29T11:35:54;24.00;99.90
24462;DHT22;12631;50.860;5.714;2023-07-29T11:38:22;24.80;99.90
24462;DHT22;12631;50.860;5.714;2023-07-29T11:40:58;25.10;99.90
24462;DHT22;12631;50.860;5.714;2023-07-29T11:43:25;24.60;99.90
24462;DHT22;12631;50.860;5.714;2023-07-29T11:45:53;24.80;99.90
24462;DHT22;12631;50.860;5.714;2023-07-29T11:48:30;24.20;99.90
24462;DHT22;12631;50.860;5.714;2023-07-29T11:50:58;23.60;99.90
24462;DHT22;12631;50.860;5.714;2023-07-29T11:53:28;23.80;1.00
24462;DHT22;12631;50.860;5.714;2023-07-29T11:55:56;23.60;1.00
24462;DHT22;12631;50.860;5.714;2023-07-29T11:58:24;23.10;1.00
24462;DHT22;12631;50.860;5.714;2023-07-29T12:00:52;22.80;1.00
24462;DHT22;12631;50.860;5.714;2023-07-29T12:03:20;22.70;1.00
24462;DHT22;12631;50.860;5.714;2023-07-29T12:05:49;22.40;1.00
24462;DHT22;12631;50.860;5.714;2023-07-29T12:08:17;22.30;99.90
24462;DHT22;12631;50.860;5.714;2023-07-29T12:10:44;22.40;99.90
24462;DHT22;12631;50.860;5.714;2023-07-29T12:13:12;22.60;99.90
24462;DHT22;12631;50.860;5.714;2023-07-29T12:15:39;22.50;1.00
24462;DHT22;12631;50.860;5.714;2023-07-29T12:18:07;22.30;90.70
24462;DHT22;12631;50.860;5.714;2023-07-29T12:20:34;22.10;99.90
24462;DHT22;12631;50.860;5.714;2023-07-29T12:23:03;22.00;99.90
24462;DHT22;12631;50.860;5.714;2023-07-29T12:25:31;22.10;99.90
24462;DHT22;12631;50.860;5.714;2023-07-29T12:28:03;22.10;1.00
24462;DHT22;12631;50.860;5.714;2023-07-29T12:30:30;22.20;1.00
24462;DHT22;12631;50.860;5.714;2023-07-29T12:32:58;22.00;1.00
24462;DHT22;12631;50.860;5.714;2023-07-29T12:35:35;21.70;1.00
24462;DHT22;12631;50.860;5.714;2023-07-29T12:38:03;21.50;1.00
24462;DHT22;12631;50.860;5.714;2023-07-29T12:40:31;21.30;99.90
24462;DHT22;12631;50.860;5.714;2023-07-29T12:42:58;20.80;99.90
24462;DHT22;12631;50.860;5.714;2023-07-29T12:45:25;20.60;99.90
24462;DHT22;12631;50.860;5.714;2023-07-29T12:47:55;20.30;99.90
24462;DHT22;12631;50.860;5.714;2023-07-29T12:50:22;20.10;99.90
24462;DHT22;12631;50.860;5.714;2023-07-29T12:52:50;20.20;99.90
24462;DHT22;12631;50.860;5.714;2023-07-29T12:55:18;20.20;99.90
24462;DHT22;12631;50.860;5.714;2023-07-29T12:57:45;20.30;99.90
24462;DHT22;12631;50.860;5.714;2023-07-29T13:00:13;20.60;99.90
24462;DHT22;12631;50.860;5.714;2023-07-29T13:02:40;21.30;99.90
24462;DHT22;12631;50.860;5.714;2023-07-29T13:05:10;21.60;99.90
24462;DHT22;12631;50.860;5.714;2023-07-29T13:07:37;21.70;99.90
24462;DHT22;12631;50.860;5.714;2023-07-29T13:10:06;21.50;99.90
24462;DHT22;12631;50.860;5.714;2023-07-29T13:12:35;21.40;99.90
24462;DHT22;12631;50.860;5.714;2023-07-29T13:15:02;21.20;99.90
24462;DHT22;12631;50.860;5.714;2023-07-29T13:17:29;20.90;99.90
24462;DHT22;12631;50.860;5.714;2023-07-29T13:19:57;20.90;99.90
24462;DHT22;12631;50.860;5.714;2023-07-29T13:22:24;20.70;99.90
24462;DHT22;12631;50.860;5.714;2023-07-29T13:24:51;20.60;99.90
24462;DHT22;12631;50.860;5.714;2023-07-29T13:27:19;20.40;99.90
24462;DHT22;12631;50.860;5.714;2023-07-29T13:29:47;20.20;99.90
24462;DHT22;12631;50.860;5.714;2023-07-29T13:32:15;20.20;99.90
24462;DHT22;12631;50.860;5.714;2023-07-29T13:34:42;20.20;99.90
24462;DHT22;12631;50.860;5.714;2023-07-29T13:37:09;20.50;99.90
24462;DHT22;12631;50.860;5.714;2023-07-29T13:39:37;20.60;99.90
24462;DHT22;12631;50.860;5.714;2023-07-29T13:42:05;20.70;99.90
24462;DHT22;12631;50.860;5.714;2023-07-29T13:44:32;20.80;99.90
24462;DHT22;12631;50.860;5.714;2023-07-29T13:47:01;20.90;99.90
24462;DHT22;12631;50.860;5.714;2023-07-29T13:49:28;21.10;99.90
24462;DHT22;12631;50.860;5.714;2023-07-29T13:51:55;21.10;99.90
24462;DHT22;12631;50.860;5.714;2023-07-29T13:54:22;21.40;99.90
24462;DHT22;12631;50.860;5.714;2023-07-29T13:56:49;21.80;99.90
24462;DHT22;12631;50.860;5.714;2023-07-29T13:59:17;22.00;99.90
24462;DHT22;12631;50.860;5.714;2023-07-29T14:01:44;22.00;99.90
24462;DHT22;12631;50.860;5.714;2023-07-29T14:04:12;21.90;99.90
24462;DHT22;12631;50.860;5.714;2023-07-29T14:06:40;21.70;99.90
24462;DHT22;12631;50.860;5.714;2023-07-29T14:09:07;21.70;99.90
24462;DHT22;12631;50.860;5.714;2023-07-29T14:11:34;21.80;99.90
24462;DHT22;12631;50.860;5.714;2023-07-29T14:14:01;21.90;99.90
24462;DHT22;12631;50.860;5.714;2023-07-29T14:16:29;22.20;99.90
24462;DHT22;12631;50.860;5.714;2023-07-29T14:18:56;22.30;99.90
24462;DHT22;12631;50.860;5.714;2023-07-29T14:21:25;22.60;99.90
24462;DHT22;12631;50.860;5.714;2023-07-29T14:23:52;22.40;99.90
24462;DHT22;12631;50.860;5.714;2023-07-29T14:26:19;22.30;99.90
24462;DHT22;12631;50.860;5.714;2023-07-29T14:28:46;22.40;99.90
24462;DHT22;12631;50.860;5.714;2023-07-29T14:31:14;22.30;99.90
24462;DHT22;12631;50.860;5.714;2023-07-29T14:33:42;22.50;99.90
24462;DHT22;12631;50.860;5.714;2023-07-29T14:36:10;22.70;99.90
24462;DHT22;12631;50.860;5.714;2023-07-29T14:38:38;22.70;99.90
24462;DHT22;12631;50.860;5.714;2023-07-29T14:41:06;22.60;99.90
24462;DHT22;12631;50.860;5.714;2023-07-29T14:43:33;22.40;99.90
24462;DHT22;12631;50.860;5.714;2023-07-29T14:46:00;22.60;99.90
24462;DHT22;12631;50.860;5.714;2023-07-29T14:48:27;22.50;99.90
24462;DHT22;12631;50.860;5.714;2023-07-29T14:50:55;22.60;99.90
24462;DHT22;12631;50.860;5.714;2023-07-29T14:53:22;22.50;99.90
24462;DHT22;12631;50.860;5.714;2023-07-29T14:55:51;22.70;99.90
24462;DHT22;12631;50.860;5.714;2023-07-29T14:58:20;23.00;99.90
24462;DHT22;12631;50.860;5.714;2023-07-29T15:00:47;23.30;99.90
24462;DHT22;12631;50.860;5.714;2023-07-29T15:03:14;23.30;99.90
24462;DHT22;12631;50.860;5.714;2023-07-29T15:05:41;23.40;99.90
24462;DHT22;12631;50.860;5.714;2023-07-29T15:08:09;23.10;99.90
24462;DHT22;12631;50.860;5.714;2023-07-29T15:10:36;22.80;99.90
24462;DHT22;12631;50.860;5.714;2023-07-29T15:13:05;22.60;99.90
24462;DHT22;12631;50.860;5.714;2023-07-29T15:15:32;22.60;99.90
24462;DHT22;12631;50.860;5.714;2023-07-29T15:17:59;22.60;99.90
24462;DHT22;12631;50.860;5.714;2023-07-29T15:20:26;22.40;99.90
24462;DHT22;12631;50.860;5.714;2023-07-29T15:22:54;22.60;99.90
24462;DHT22;12631;50.860;5.714;2023-07-29T15:25:21;22.80;99.90
24462;DHT22;12631;50.860;5.714;2023-07-29T15:27:48;22.90;99.90
24462;DHT22;12631;50.860;5.714;2023-07-29T15:30:17;22.80;99.90
24462;DHT22;12631;50.860;5.714;2023-07-29T15:32:45;22.70;99.90
24462;DHT22;12631;50.860;5.714;2023-07-29T15:35:12;22.80;99.90
24462;DHT22;12631;50.860;5.714;2023-07-29T15:37:39;22.90;99.90